createdAt,value
2019-01-31T00:01:46.260Z,6.90
2019-01-31T00:04:55.668Z,8.23
2019-01-31T00:08:05.554Z,6.33
2019-01-31T00:41:11.860Z,5.80
2019-01-31T00:44:44.204Z,6.13
2019-01-31T00:48:04.567Z,6.63
2019-01-31T00:51:13.317Z,6.07
2019-01-31T00:54:30.876Z,7.70
2019-01-31T00:57:37.923Z,6.50
2019-01-31T01:00:22.619Z,6.30
2019-01-31T01:03:26.364Z,8.33
2019-01-31T01:06:35.600Z,6.53
2019-01-31T01:09:55.089Z,6.10
2019-01-31T01:13:13.043Z,6.20
2019-01-31T01:16:20.844Z,5.93
2019-01-31T01:19:35.369Z,6.80
2019-01-31T01:22:37.633Z,5.27
2019-01-31T01:25:43.679Z,6.00
2019-01-31T01:28:47.596Z,7.30
2019-01-31T01:31:34.347Z,5.77
2019-01-31T01:34:33.878Z,6.47
2019-01-31T01:37:37.103Z,5.63
2019-01-31T01:40:53.296Z,6.00
2019-01-31T01:43:59.864Z,5.83
2019-01-31T01:46:55.860Z,5.60
2019-01-31T01:50:10.210Z,6.40
2019-01-31T01:53:00.320Z,5.90
2019-01-31T01:56:16.904Z,6.23
2019-01-31T01:59:22.569Z,6.67
2019-01-31T02:02:46.148Z,4.90
2019-01-31T02:06:06.446Z,5.40
2019-01-31T02:09:08.493Z,6.03
2019-01-31T02:12:25.640Z,5.27
2019-01-31T02:15:32.817Z,5.10
2019-01-31T02:18:20.132Z,6.37
2019-01-31T02:21:19.876Z,5.20
2019-01-31T02:24:15.114Z,5.30
2019-01-31T02:27:25.802Z,5.33
2019-01-31T02:30:16.467Z,6.00
2019-01-31T02:33:18.899Z,5.67
2019-01-31T02:36:30.609Z,6.57
2019-01-31T02:39:42.325Z,5.30
2019-01-31T02:42:48.196Z,5.57
2019-01-31T02:45:48.327Z,5.57
2019-01-31T02:48:40.296Z,5.13
2019-01-31T02:52:02.888Z,5.33
2019-01-31T02:55:18.802Z,4.70
2019-01-31T02:58:11.840Z,5.27
2019-01-31T03:01:12.656Z,4.63
2019-01-31T03:04:03.385Z,5.97
2019-01-31T03:07:21.952Z,5.97
2019-01-31T03:10:30.580Z,4.67
2019-01-31T03:13:15.381Z,5.20
2019-01-31T03:16:27.952Z,5.13
2019-01-31T03:19:54.030Z,3.70
2019-01-31T03:23:02.245Z,3.60
2019-01-31T03:25:55.643Z,4.37
2019-01-31T03:29:12.803Z,4.73
2019-01-31T03:32:09.575Z,4.87
2019-01-31T03:35:12.212Z,5.10
2019-01-31T03:38:35.692Z,4.93
2019-01-31T03:41:47.838Z,4.40
2019-01-31T03:44:36.034Z,4.47
2019-01-31T03:47:29.040Z,5.00
2019-01-31T03:50:17.436Z,5.10
2019-01-31T03:53:24.413Z,4.40
2019-01-31T03:56:53.501Z,5.80
2019-01-31T03:59:31.173Z,4.77
2019-01-31T04:02:35.850Z,6.03
2019-01-31T04:05:12.060Z,5.60
2019-01-31T04:07:42.111Z,5.63
2019-01-31T04:10:19.175Z,5.43
2019-01-31T04:12:43.864Z,5.90
2019-01-31T04:15:14.053Z,5.97
2019-01-31T04:17:44.018Z,6.10
2019-01-31T04:20:14.009Z,5.30
2019-01-31T04:22:43.987Z,7.30
2019-01-31T04:25:13.996Z,6.03
2019-01-31T04:27:43.981Z,5.60
2019-01-31T04:30:15.431Z,6.17
2019-01-31T04:32:45.415Z,6.00
2019-01-31T04:35:15.405Z,6.67
2019-01-31T04:37:45.382Z,6.17
2019-01-31T04:40:15.393Z,5.97
2019-01-31T04:42:45.357Z,6.77
2019-01-31T04:45:15.369Z,6.17
2019-01-31T04:47:45.345Z,6.90
2019-01-31T04:50:15.576Z,5.73
2019-01-31T04:52:45.575Z,6.23
2019-01-31T04:55:15.579Z,7.70
2019-01-31T04:57:45.601Z,6.47
2019-01-31T05:00:17.353Z,6.97
2019-01-31T05:02:47.336Z,5.67
2019-01-31T05:05:17.311Z,6.93
2019-01-31T05:07:47.334Z,6.77
2019-01-31T05:10:17.313Z,6.57
2019-01-31T05:12:47.307Z,7.53
2019-01-31T05:15:17.311Z,6.47
2019-01-31T05:17:47.306Z,6.90
2019-01-31T05:20:18.257Z,6.63
2019-01-31T05:22:48.241Z,7.07
2019-01-31T05:25:18.286Z,6.47
2019-01-31T05:27:48.260Z,8.00
2019-01-31T05:30:18.244Z,7.63
2019-01-31T05:32:48.273Z,6.17
2019-01-31T05:35:18.250Z,6.80
2019-01-31T05:37:48.289Z,7.47
2019-01-31T05:40:18.367Z,6.00
2019-01-31T05:42:48.346Z,6.63
2019-01-31T05:45:18.345Z,7.30
2019-01-31T05:47:48.347Z,6.27
2019-01-31T05:50:19.118Z,6.27
2019-01-31T05:52:49.113Z,6.00
2019-01-31T05:55:19.164Z,6.13
2019-01-31T05:57:49.157Z,5.93
2019-01-31T06:00:24.669Z,7.33
2019-01-31T06:02:54.639Z,6.50
2019-01-31T06:05:24.647Z,7.00
2019-01-31T06:07:54.610Z,6.90
2019-01-31T06:10:24.693Z,6.73
2019-01-31T06:12:54.657Z,6.90
2019-01-31T06:15:24.662Z,6.87
2019-01-31T06:17:54.632Z,8.03
2019-01-31T06:20:25.607Z,6.03
2019-01-31T06:22:55.551Z,6.47
2019-01-31T06:25:25.579Z,7.77
2019-01-31T06:27:55.543Z,6.50
2019-01-31T06:30:25.567Z,7.23
2019-01-31T06:32:55.574Z,6.33
2019-01-31T06:35:25.573Z,6.77
2019-01-31T06:37:55.581Z,7.43
2019-01-31T06:40:25.561Z,7.03
2019-01-31T06:42:55.602Z,6.87
2019-01-31T06:45:25.585Z,7.27
2019-01-31T06:47:55.693Z,7.43
2019-01-31T06:50:25.688Z,7.17
2019-01-31T06:52:58.186Z,6.70
2019-01-31T06:55:27.376Z,6.77
2019-01-31T06:57:57.369Z,7.70
2019-01-31T07:00:27.381Z,6.67
2019-01-31T07:02:57.370Z,8.87
2019-01-31T07:05:27.459Z,7.07
2019-01-31T07:07:57.482Z,7.27
2019-01-31T07:10:27.877Z,7.30
2019-01-31T07:12:57.864Z,7.27
2019-01-31T07:15:27.882Z,6.33
2019-01-31T07:17:57.924Z,7.13
2019-01-31T07:20:27.926Z,6.67
2019-01-31T07:22:57.946Z,6.30
2019-01-31T07:25:28.119Z,6.97
2019-01-31T07:27:58.225Z,6.77
2019-01-31T07:30:28.270Z,7.07
2019-01-31T07:32:58.298Z,6.37
2019-01-31T07:35:28.275Z,6.87
2019-01-31T07:37:58.286Z,6.57
2019-01-31T07:40:28.346Z,7.00
2019-01-31T07:42:58.350Z,8.17
2019-01-31T07:45:30.046Z,6.47
2019-01-31T07:48:00.090Z,7.40
2019-01-31T07:50:30.126Z,8.07
2019-01-31T07:53:00.208Z,7.90
2019-01-31T07:55:30.200Z,7.17
2019-01-31T07:58:00.223Z,6.87
2019-01-31T08:00:30.251Z,7.07
2019-01-31T08:03:00.295Z,7.30
2019-01-31T08:05:30.332Z,7.47
2019-01-31T08:08:00.368Z,8.07
2019-01-31T08:10:33.131Z,6.63
2019-01-31T08:13:03.208Z,6.83
2019-01-31T08:15:34.171Z,7.13
2019-01-31T08:18:04.887Z,7.10
2019-01-31T08:20:34.878Z,6.53
2019-01-31T08:23:05.281Z,7.30
2019-01-31T08:25:35.340Z,6.23
2019-01-31T08:28:06.583Z,6.97
2019-01-31T08:30:38.528Z,6.93
2019-01-31T08:33:08.796Z,7.30
2019-01-31T08:35:38.779Z,7.10
2019-01-31T08:38:08.784Z,6.57
2019-01-31T08:40:38.791Z,6.20
2019-01-31T08:43:08.796Z,7.70
2019-01-31T08:45:38.959Z,6.97
2019-01-31T08:48:09.049Z,7.60
2019-01-31T08:50:39.127Z,6.83
2019-01-31T08:53:09.216Z,6.43
2019-01-31T08:55:39.209Z,6.90
2019-01-31T08:58:09.940Z,6.67
2019-01-31T09:00:40.051Z,6.90
2019-01-31T09:03:10.130Z,7.00
2019-01-31T09:05:40.309Z,6.83
2019-01-31T09:08:10.312Z,7.13
2019-01-31T09:10:40.784Z,6.23
2019-01-31T09:13:12.310Z,6.80
2019-01-31T09:15:42.341Z,6.57
2019-01-31T09:18:12.332Z,6.63
2019-01-31T09:20:52.399Z,5.93
2019-01-31T09:24:15.367Z,6.40
2019-01-31T09:27:32.347Z,5.53
2019-01-31T09:30:31.567Z,5.90
2019-01-31T09:33:30.172Z,6.57
2019-01-31T09:36:40.699Z,5.37
2019-01-31T09:39:44.695Z,5.80
2019-01-31T09:42:49.085Z,5.67
2019-01-31T09:45:58.829Z,6.43
2019-01-31T09:49:03.875Z,5.80
2019-01-31T09:52:03.624Z,6.10
2019-01-31T09:55:23.363Z,5.53
2019-01-31T09:58:30.671Z,4.77
2019-01-31T10:01:40.441Z,5.13
2019-01-31T10:04:51.575Z,5.57
2019-01-31T10:07:42.715Z,5.40
2019-01-31T10:11:05.652Z,4.87
2019-01-31T10:14:12.810Z,5.47
2019-01-31T10:17:19.058Z,5.40
2019-01-31T10:20:09.663Z,4.73
2019-01-31T10:23:10.944Z,4.97
2019-01-31T10:26:19.215Z,4.07
2019-01-31T10:29:23.210Z,4.87
2019-01-31T10:32:31.826Z,3.97
2019-01-31T10:35:52.082Z,4.23
2019-01-31T10:38:54.896Z,3.87
2019-01-31T10:41:57.924Z,3.73
2019-01-31T10:45:07.717Z,4.10
2019-01-31T10:47:58.520Z,4.10
2019-01-31T10:51:23.596Z,4.63
2019-01-31T10:54:16.061Z,3.50
2019-01-31T10:57:12.165Z,3.50
2019-01-31T11:00:20.485Z,2.60
2019-01-31T11:03:41.168Z,2.70
2019-01-31T11:06:40.287Z,2.23
2019-01-31T11:09:51.589Z,2.77
2019-01-31T11:12:35.975Z,2.50
2019-01-31T11:15:20.464Z,2.37
2019-01-31T11:18:12.442Z,2.30
2019-01-31T11:21:11.908Z,2.70
2019-01-31T11:23:53.215Z,2.57
2019-01-31T11:26:57.921Z,2.77
2019-01-31T11:30:15.007Z,2.43
2019-01-31T11:33:28.164Z,3.77
2019-01-31T11:36:54.740Z,2.47
2019-01-31T11:39:56.200Z,2.57
2019-01-31T11:42:57.100Z,2.57
2019-01-31T11:46:05.045Z,2.10
2019-01-31T11:48:58.580Z,2.77
2019-01-31T11:52:04.254Z,3.53
2019-01-31T11:55:20.096Z,3.20
2019-01-31T11:58:51.445Z,2.80
2019-01-31T12:01:21.557Z,2.67
2019-01-31T12:03:55.192Z,3.23
2019-01-31T12:06:25.193Z,3.40
2019-01-31T12:08:55.450Z,2.37
2019-01-31T12:11:25.579Z,3.30
2019-01-31T12:13:55.700Z,2.43
2019-01-31T12:16:25.765Z,3.27
2019-01-31T12:18:55.745Z,2.70
2019-01-31T12:21:25.739Z,2.27
2019-01-31T12:23:55.737Z,2.27
2019-01-31T12:26:25.895Z,3.00
2019-01-31T12:28:55.879Z,3.07
2019-01-31T12:31:25.899Z,2.83
2019-01-31T12:33:55.885Z,2.73
2019-01-31T12:36:25.864Z,2.97
2019-01-31T12:38:55.908Z,3.13
2019-01-31T12:41:25.952Z,2.43
2019-01-31T12:43:56.056Z,2.80
2019-01-31T12:46:26.071Z,2.80
2019-01-31T12:48:56.143Z,2.90
2019-01-31T12:51:26.236Z,3.10
2019-01-31T12:53:56.218Z,2.80
2019-01-31T12:56:26.233Z,2.80
2019-01-31T12:58:56.216Z,2.93
2019-01-31T13:01:26.241Z,2.83
2019-01-31T13:03:56.261Z,3.20
2019-01-31T13:06:36.289Z,3.37
2019-01-31T13:09:09.446Z,2.77
2019-01-31T13:11:39.538Z,3.33
2019-01-31T13:14:10.025Z,2.90
2019-01-31T13:16:40.103Z,2.90
2019-01-31T13:19:10.718Z,2.80
2019-01-31T13:21:40.804Z,2.77
2019-01-31T13:24:10.803Z,2.80
2019-01-31T13:26:40.804Z,3.27
2019-01-31T13:29:10.807Z,2.30
2019-01-31T13:31:40.929Z,2.13
2019-01-31T13:34:10.961Z,2.23
2019-01-31T13:36:41.096Z,2.20
2019-01-31T13:39:14.702Z,2.10
2019-01-31T13:41:44.712Z,3.00
2019-01-31T13:44:14.660Z,2.40
2019-01-31T13:46:44.758Z,3.13
2019-01-31T13:49:17.792Z,2.63
2019-01-31T13:51:46.456Z,2.50
2019-01-31T13:54:16.514Z,3.03
2019-01-31T13:56:46.517Z,2.70
2019-01-31T13:59:16.538Z,2.77
2019-01-31T14:01:46.612Z,3.00
2019-01-31T14:04:16.663Z,3.30
2019-01-31T14:06:46.715Z,2.63
2019-01-31T14:09:16.687Z,2.53
2019-01-31T14:11:50.228Z,2.40
2019-01-31T14:14:20.278Z,2.50
2019-01-31T14:16:50.256Z,2.70
2019-01-31T14:19:20.274Z,2.67
2019-01-31T14:21:50.251Z,2.57
2019-01-31T14:24:20.258Z,2.77
2019-01-31T14:26:50.228Z,2.37
2019-01-31T14:29:20.248Z,2.40
2019-01-31T14:31:50.261Z,2.17
2019-01-31T14:34:20.281Z,2.40
2019-01-31T14:36:50.271Z,2.50
2019-01-31T14:39:20.446Z,2.40
2019-01-31T14:41:50.516Z,2.10
2019-01-31T14:44:20.931Z,2.77
2019-01-31T14:46:50.950Z,2.77
2019-01-31T14:49:21.046Z,2.20
2019-01-31T14:51:51.105Z,2.50
2019-01-31T14:54:21.166Z,2.40
2019-01-31T14:56:51.128Z,2.10
2019-01-31T14:59:21.132Z,2.30
2019-01-31T15:01:51.114Z,2.07
2019-01-31T15:04:21.108Z,2.57
2019-01-31T15:06:51.118Z,1.77
2019-01-31T15:09:21.106Z,2.13
2019-01-31T15:11:51.116Z,1.80
2019-01-31T15:14:31.242Z,1.90
2019-01-31T15:16:53.218Z,2.33
2019-01-31T15:19:23.303Z,1.90
2019-01-31T15:21:53.385Z,2.60
2019-01-31T15:24:23.873Z,1.80
2019-01-31T15:26:53.846Z,1.97
2019-01-31T15:29:23.822Z,2.20
2019-01-31T15:31:56.911Z,2.40
2019-01-31T15:34:26.884Z,2.60
2019-01-31T15:36:57.806Z,2.13
2019-01-31T15:39:27.819Z,2.30
2019-01-31T15:41:57.836Z,2.20
2019-01-31T15:44:27.812Z,2.50
2019-01-31T15:46:57.823Z,2.57
2019-01-31T15:49:27.869Z,2.90
2019-01-31T15:51:57.900Z,2.23
2019-01-31T15:54:27.953Z,2.20
2019-01-31T15:56:58.016Z,2.83
2019-01-31T15:59:28.348Z,2.67
2019-01-31T16:01:58.350Z,2.10
2019-01-31T16:04:28.376Z,2.70
2019-01-31T16:06:58.363Z,7.50
2019-01-31T16:09:28.390Z,2.57
2019-01-31T16:11:59.786Z,3.00
2019-01-31T16:14:30.401Z,2.33
2019-01-31T16:17:00.380Z,2.83
2019-01-31T16:19:30.411Z,2.70
2019-01-31T16:22:00.688Z,3.03
2019-01-31T16:24:31.223Z,2.77
2019-01-31T16:27:01.550Z,2.80
2019-01-31T16:29:32.615Z,2.63
2019-01-31T16:32:02.686Z,3.13
2019-01-31T16:34:32.703Z,2.80
2019-01-31T16:37:02.721Z,3.37
2019-01-31T16:39:32.689Z,2.47
2019-01-31T16:42:02.720Z,3.50
2019-01-31T16:44:32.730Z,2.93
2019-01-31T16:47:03.068Z,3.00
2019-01-31T16:49:33.032Z,2.27
2019-01-31T16:52:03.153Z,2.60
2019-01-31T16:54:33.142Z,2.90
2019-01-31T16:57:03.141Z,2.60
2019-01-31T16:59:33.132Z,5.00
2019-01-31T17:02:03.838Z,3.63
2019-01-31T17:04:34.461Z,2.67
2019-01-31T17:07:04.553Z,4.23
2019-01-31T17:09:34.629Z,4.20
2019-01-31T17:12:04.689Z,5.80
2019-01-31T17:14:37.810Z,3.47
2019-01-31T17:17:07.790Z,3.30
2019-01-31T17:19:37.808Z,2.80
2019-01-31T17:22:07.967Z,3.20
2019-01-31T17:24:37.990Z,2.97
2019-01-31T17:27:08.027Z,3.27
2019-01-31T17:29:38.071Z,3.23
2019-01-31T17:32:08.204Z,5.40
2019-01-31T17:34:38.245Z,3.03
2019-01-31T17:37:08.249Z,3.77
2019-01-31T17:39:38.281Z,3.50
2019-01-31T17:42:08.303Z,3.13
2019-01-31T17:44:41.967Z,3.73
2019-01-31T17:47:11.967Z,3.47
2019-01-31T17:49:42.601Z,3.40
2019-01-31T17:52:12.628Z,3.37
2019-01-31T17:54:42.718Z,3.73
2019-01-31T17:57:15.636Z,3.03
2019-01-31T17:59:45.644Z,3.50
2019-01-31T18:02:25.915Z,3.77
2019-01-31T18:04:55.925Z,3.20
2019-01-31T18:07:27.552Z,3.47
2019-01-31T18:09:57.651Z,3.60
2019-01-31T18:12:27.728Z,3.40
2019-01-31T18:14:57.775Z,3.47
2019-01-31T18:17:28.449Z,3.60
2019-01-31T18:19:58.494Z,3.53
2019-01-31T18:22:33.803Z,4.13
2019-01-31T18:25:10.589Z,4.20
2019-01-31T18:27:42.810Z,3.80
2019-01-31T18:30:18.826Z,3.47
2019-01-31T18:33:02.525Z,3.50
2019-01-31T18:35:32.530Z,2.87
2019-01-31T18:38:05.495Z,3.40
2019-01-31T18:40:35.558Z,5.30
2019-01-31T18:43:09.655Z,4.07
2019-01-31T18:45:39.587Z,4.23
2019-01-31T18:48:11.292Z,4.70
2019-01-31T18:50:42.596Z,4.10
2019-01-31T18:53:16.761Z,3.63
2019-01-31T18:55:46.771Z,3.90
2019-01-31T18:58:17.281Z,3.70
2019-01-31T19:00:49.125Z,4.47
2019-01-31T19:03:22.986Z,3.57
2019-01-31T19:05:56.768Z,3.87
2019-01-31T19:08:27.634Z,3.90
2019-01-31T19:10:57.647Z,4.00
2019-01-31T19:13:27.691Z,3.93
2019-01-31T19:16:04.738Z,4.20
2019-01-31T19:18:29.516Z,3.90
2019-01-31T19:20:59.512Z,4.97
2019-01-31T19:23:29.574Z,4.10
2019-01-31T19:25:59.611Z,4.37
2019-01-31T19:28:29.627Z,4.17
2019-01-31T19:30:59.645Z,4.43
2019-01-31T19:33:29.712Z,4.33
2019-01-31T19:35:59.722Z,4.00
2019-01-31T19:38:29.809Z,3.80
2019-01-31T19:40:59.830Z,4.27
2019-01-31T19:43:29.829Z,4.27
2019-01-31T19:46:00.064Z,4.13
2019-01-31T19:48:30.087Z,5.87
2019-01-31T19:51:00.116Z,4.37
2019-01-31T19:53:30.139Z,4.67
2019-01-31T19:56:03.198Z,4.23
2019-01-31T19:58:33.205Z,3.73
2019-01-31T20:01:03.240Z,3.50
2019-01-31T20:03:33.311Z,4.17
2019-01-31T20:06:04.177Z,4.60
2019-01-31T20:08:34.193Z,4.57
2019-01-31T20:11:04.779Z,4.13
2019-01-31T20:13:34.788Z,4.43
2019-01-31T20:16:04.823Z,3.90
2019-01-31T20:18:34.854Z,3.90
2019-01-31T20:21:05.577Z,4.27
2019-01-31T20:23:35.572Z,4.20
2019-01-31T20:26:05.923Z,4.30
2019-01-31T20:28:35.919Z,4.50
2019-01-31T20:31:05.942Z,4.00
2019-01-31T20:33:36.032Z,4.67
2019-01-31T20:36:06.150Z,4.40
2019-01-31T20:38:36.188Z,3.97
2019-01-31T20:41:06.199Z,4.40
2019-01-31T20:43:36.225Z,4.30
2019-01-31T20:46:06.408Z,3.97
2019-01-31T20:48:36.436Z,4.03
2019-01-31T20:51:06.469Z,3.90
2019-01-31T20:53:36.544Z,4.50
2019-01-31T20:56:06.615Z,4.40
2019-01-31T20:58:36.751Z,4.70
2019-01-31T21:01:06.747Z,4.30
2019-01-31T21:03:36.765Z,4.10
2019-01-31T21:06:06.824Z,3.87
2019-01-31T21:08:36.852Z,4.73
2019-01-31T21:11:07.732Z,3.83
2019-01-31T21:13:37.831Z,4.07
2019-01-31T21:16:07.854Z,4.93
2019-01-31T21:18:39.387Z,3.47
2019-01-31T21:21:09.418Z,4.20
2019-01-31T21:23:39.417Z,4.67
2019-01-31T21:26:09.450Z,4.03
2019-01-31T21:28:39.477Z,4.83
2019-01-31T21:31:09.569Z,3.97
2019-01-31T21:33:39.612Z,3.80
2019-01-31T21:36:09.670Z,4.53
2019-01-31T21:38:39.827Z,4.20
2019-01-31T21:41:09.858Z,4.93
2019-01-31T21:43:39.981Z,6.10
2019-01-31T21:46:10.005Z,4.53
2019-01-31T21:48:40.045Z,4.03
2019-01-31T21:51:10.035Z,5.00
2019-01-31T21:53:40.058Z,4.63
2019-01-31T21:56:10.108Z,3.83
2019-01-31T21:58:40.161Z,4.73
2019-01-31T22:01:10.262Z,4.20
2019-01-31T22:03:40.321Z,3.80
2019-01-31T22:06:21.968Z,4.13
2019-01-31T22:08:42.055Z,4.57
2019-01-31T22:11:12.022Z,5.27
2019-01-31T22:13:42.013Z,4.13
2019-01-31T22:16:12.019Z,5.07
2019-01-31T22:18:42.047Z,4.40
2019-01-31T22:21:12.113Z,3.93
2019-01-31T22:23:42.189Z,4.67
2019-01-31T22:26:12.232Z,4.70
2019-01-31T22:28:42.280Z,4.43
2019-01-31T22:31:12.269Z,4.57
2019-01-31T22:33:42.271Z,4.27
2019-01-31T22:36:12.287Z,4.77
2019-01-31T22:38:45.410Z,4.83
2019-01-31T22:41:14.053Z,4.77
2019-01-31T22:43:44.049Z,4.17
2019-01-31T22:46:14.127Z,4.30
2019-01-31T22:48:44.179Z,4.33
2019-01-31T22:51:14.171Z,4.43
2019-01-31T22:53:44.222Z,5.03
2019-01-31T22:56:14.233Z,4.70
2019-01-31T22:58:44.263Z,3.97
2019-01-31T23:01:36.971Z,5.33
2019-01-31T23:04:07.264Z,4.30
2019-01-31T23:06:37.231Z,5.27
2019-01-31T23:09:10.393Z,4.77
2019-01-31T23:11:40.468Z,4.80
2019-01-31T23:14:10.462Z,5.00
2019-01-31T23:16:40.466Z,4.87
2019-01-31T23:19:10.709Z,5.03
2019-01-31T23:21:40.708Z,4.60
2019-01-31T23:24:12.823Z,5.33
2019-01-31T23:26:55.651Z,4.47
2019-01-31T23:29:31.290Z,4.37
2019-01-31T23:32:08.517Z,4.63
2019-01-31T23:34:46.328Z,5.23
2019-01-31T23:37:23.248Z,5.00
2019-01-31T23:40:05.681Z,5.50
2019-01-31T23:42:42.228Z,6.47
2019-01-31T23:45:18.888Z,4.40
2019-01-31T23:48:03.729Z,4.93
2019-01-31T23:50:39.153Z,4.07
2019-01-31T23:53:09.525Z,4.33
2019-01-31T23:55:39.577Z,4.57
2019-01-31T23:58:09.603Z,6.70
